sensor_id;sensor_type;location;lat;lon;timestamp;pressure;altitude;pressure_sealevel;temperature;humidity
77149;BME280;66122;47.130;16.844;2023-07-16T00:00:23;99300.28;;;23.46;87.52
77149;BME280;66122;47.130;16.844;2023-07-16T00:10:29;99329.38;;;23.52;88.23
77149;BME280;66122;47.130;16.844;2023-07-16T00:20:32;99316.72;;;23.36;88.67
77149;BME280;66122;47.130;16.844;2023-07-16T00:30:38;99312.88;;;23.23;89.97
77149;BME280;66122;47.130;16.844;2023-07-16T00:40:42;99280.47;;;23.15;89.26
77149;BME280;66122;47.130;16.844;2023-07-16T00:50:46;99284.31;;;23.20;90.79
77149;BME280;66122;47.130;16.844;2023-07-16T01:00:48;99284.53;;;23.11;91.92
77149;BME280;66122;47.130;16.844;2023-07-16T01:10:51;99279.31;;;23.01;91.73
77149;BME280;66122;47.130;16.844;2023-07-16T01:20:55;99282.41;;;22.90;92.69
77149;BME280;66122;47.130;16.844;2023-07-16T01:30:58;99274.63;;;22.87;93.27
77149;BME280;66122;47.130;16.844;2023-07-16T01:41:02;99227.22;;;22.68;92.60
77149;BME280;66122;47.130;16.844;2023-07-16T01:51:11;99258.13;;;22.74;93.31
77149;BME280;66122;47.130;16.844;2023-07-16T02:01:16;99251.88;;;22.49;94.62
77149;BME280;66122;47.130;16.844;2023-07-16T02:11:20;99250.72;;;22.35;95.26
77149;BME280;66122;47.130;16.844;2023-07-16T02:21:23;99241.28;;;22.15;96.38
77149;BME280;66122;47.130;16.844;2023-07-16T02:31:25;99235.19;;;21.89;97.64
77149;BME280;66122;47.130;16.844;2023-07-16T02:41:29;99255.75;;;21.90;98.97
77149;BME280;66122;47.130;16.844;2023-07-16T02:51:33;99257.41;;;21.74;97.60
77149;BME280;66122;47.130;16.844;2023-07-16T03:01:36;99256.91;;;21.71;96.45
77149;BME280;66122;47.130;16.844;2023-07-16T03:11:39;99246.56;;;21.50;97.86
77149;BME280;66122;47.130;16.844;2023-07-16T03:21:44;99243.16;;;21.40;96.63
77149;BME280;66122;47.130;16.844;2023-07-16T03:31:48;99243.13;;;21.24;97.79
77149;BME280;66122;47.130;16.844;2023-07-16T03:41:53;99282.34;;;21.18;99.34
77149;BME280;66122;47.130;16.844;2023-07-16T03:51:56;99281.91;;;21.31;97.59
77149;BME280;66122;47.130;16.844;2023-07-16T04:01:59;99271.81;;;21.41;95.79
77149;BME280;66122;47.130;16.844;2023-07-16T04:12:02;99276.28;;;21.66;95.06
77149;BME280;66122;47.130;16.844;2023-07-16T04:22:05;99311.16;;;22.18;91.54
77149;BME280;66122;47.130;16.844;2023-07-16T04:32:08;99329.19;;;22.50;89.73
77149;BME280;66122;47.130;16.844;2023-07-16T04:42:11;99314.88;;;22.74;86.64
77149;BME280;66122;47.130;16.844;2023-07-16T04:52:13;99326.00;;;22.87;86.88
77149;BME280;66122;47.130;16.844;2023-07-16T05:02:21;99332.22;;;23.59;82.83
77149;BME280;66122;47.130;16.844;2023-07-16T05:12:24;99345.00;;;23.73;80.68
77149;BME280;66122;47.130;16.844;2023-07-16T05:22:27;99375.31;;;24.30;79.01
77149;BME280;66122;47.130;16.844;2023-07-16T05:32:29;99396.38;;;24.43;76.77
77149;BME280;66122;47.130;16.844;2023-07-16T05:42:32;99410.63;;;24.91;73.94
77149;BME280;66122;47.130;16.844;2023-07-16T05:52:36;99424.88;;;24.84;72.42
77149;BME280;66122;47.130;16.844;2023-07-16T06:02:39;99439.16;;;25.53;70.64
77149;BME280;66122;47.130;16.844;2023-07-16T06:12:42;99445.28;;;25.85;68.82
77149;BME280;66122;47.130;16.844;2023-07-16T06:22:45;99456.31;;;25.98;67.20
77149;BME280;66122;47.130;16.844;2023-07-16T06:32:48;99465.06;;;25.79;67.86
77149;BME280;66122;47.130;16.844;2023-07-16T06:42:50;99502.69;;;26.11;64.22
77149;BME280;66122;47.130;16.844;2023-07-16T06:52:53;99575.00;;;26.71;64.78
77149;BME280;66122;47.130;16.844;2023-07-16T07:02:56;99594.28;;;26.91;63.52
77149;BME280;66122;47.130;16.844;2023-07-16T07:12:59;99569.81;;;27.76;60.83
77149;BME280;66122;47.130;16.844;2023-07-16T07:23:02;99570.06;;;28.91;58.10
77149;BME280;66122;47.130;16.844;2023-07-16T07:33:07;99533.59;;;29.18;57.48
77149;BME280;66122;47.130;16.844;2023-07-16T07:43:10;99555.31;;;29.72;56.37
77149;BME280;66122;47.130;16.844;2023-07-16T07:53:14;99579.25;;;29.77;56.05
77149;BME280;66122;47.130;16.844;2023-07-16T08:03:17;99556.50;;;30.22;55.24
77149;BME280;66122;47.130;16.844;2023-07-16T08:13:21;99572.22;;;30.60;53.10
77149;BME280;66122;47.130;16.844;2023-07-16T08:23:24;99588.94;;;30.90;51.67
77149;BME280;66122;47.130;16.844;2023-07-16T08:33:28;99581.75;;;30.24;48.60
77149;BME280;66122;47.130;16.844;2023-07-16T08:43:33;99604.53;;;31.59;44.80
77149;BME280;66122;47.130;16.844;2023-07-16T08:53:35;99614.59;;;32.21;43.34
77149;BME280;66122;47.130;16.844;2023-07-16T09:03:38;99605.06;;;31.74;43.89
77149;BME280;66122;47.130;16.844;2023-07-16T09:13:48;99604.59;;;31.84;44.62
77149;BME280;66122;47.130;16.844;2023-07-16T09:23:58;99602.69;;;32.70;42.78
77149;BME280;66122;47.130;16.844;2023-07-16T09:34:00;99610.59;;;32.42;43.80
77149;BME280;66122;47.130;16.844;2023-07-16T09:44:03;99597.53;;;32.37;45.15
77149;BME280;66122;47.130;16.844;2023-07-16T09:54:08;99629.09;;;32.46;44.77
77149;BME280;66122;47.130;16.844;2023-07-16T10:04:14;99609.03;;;33.01;43.43
77149;BME280;66122;47.130;16.844;2023-07-16T10:14:25;99598.44;;;33.64;41.36
77149;BME280;66122;47.130;16.844;2023-07-16T10:24:30;99623.88;;;33.29;41.74
77149;BME280;66122;47.130;16.844;2023-07-16T10:34:35;99619.78;;;34.03;41.29
77149;BME280;66122;47.130;16.844;2023-07-16T10:44:39;99608.81;;;34.27;40.10
77149;BME280;66122;47.130;16.844;2023-07-16T10:54:42;99602.09;;;34.23;40.79
77149;BME280;66122;47.130;16.844;2023-07-16T11:04:46;99602.31;;;34.09;39.40
77149;BME280;66122;47.130;16.844;2023-07-16T11:14:51;99586.50;;;33.93;41.13
77149;BME280;66122;47.130;16.844;2023-07-16T11:24:55;99601.50;;;34.96;40.45
77149;BME280;66122;47.130;16.844;2023-07-16T11:34:59;99607.00;;;34.96;38.91
77149;BME280;66122;47.130;16.844;2023-07-16T11:45:03;99586.00;;;34.66;39.63
77149;BME280;66122;47.130;16.844;2023-07-16T11:55:07;99599.25;;;35.21;38.81
77149;BME280;66122;47.130;16.844;2023-07-16T12:05:10;99586.16;;;35.56;36.35
77149;BME280;66122;47.130;16.844;2023-07-16T12:15:16;99584.63;;;35.49;37.11
77149;BME280;66122;47.130;16.844;2023-07-16T12:25:19;99581.38;;;34.95;37.75
77149;BME280;66122;47.130;16.844;2023-07-16T12:35:25;99589.22;;;35.60;39.29
77149;BME280;66122;47.130;16.844;2023-07-16T12:45:28;99586.00;;;35.96;35.79
77149;BME280;66122;47.130;16.844;2023-07-16T12:55:31;99577.56;;;36.20;37.15
77149;BME280;66122;47.130;16.844;2023-07-16T13:05:34;99573.56;;;35.94;37.73
77149;BME280;66122;47.130;16.844;2023-07-16T13:15:37;99570.81;;;35.94;36.05
77149;BME280;66122;47.130;16.844;2023-07-16T13:25:40;99591.97;;;36.44;36.71
77149;BME280;66122;47.130;16.844;2023-07-16T13:35:43;99570.16;;;35.42;36.42
77149;BME280;66122;47.130;16.844;2023-07-16T13:45:47;99580.66;;;36.23;35.54
77149;BME280;66122;47.130;16.844;2023-07-16T13:55:50;99571.41;;;36.34;34.31
77149;BME280;66122;47.130;16.844;2023-07-16T14:05:53;99568.50;;;36.85;33.28
77149;BME280;66122;47.130;16.844;2023-07-16T14:15:56;99561.66;;;36.49;35.61
77149;BME280;66122;47.130;16.844;2023-07-16T14:25:59;99540.81;;;36.19;35.11
77149;BME280;66122;47.130;16.844;2023-07-16T14:36:01;99545.09;;;35.27;37.32
77149;BME280;66122;47.130;16.844;2023-07-16T14:46:06;99525.09;;;36.63;35.22
77149;BME280;66122;47.130;16.844;2023-07-16T14:56:09;99520.34;;;37.02;34.36
77149;BME280;66122;47.130;16.844;2023-07-16T15:06:13;99524.72;;;36.33;35.41
77149;BME280;66122;47.130;16.844;2023-07-16T15:16:17;99541.34;;;35.83;34.24
77149;BME280;66122;47.130;16.844;2023-07-16T15:26:20;99509.56;;;36.35;35.46
77149;BME280;66122;47.130;16.844;2023-07-16T15:36:33;99525.09;;;36.20;33.70
77149;BME280;66122;47.130;16.844;2023-07-16T15:46:36;99529.00;;;35.07;35.25
77149;BME280;66122;47.130;16.844;2023-07-16T15:56:39;99504.19;;;35.07;35.13
77149;BME280;66122;47.130;16.844;2023-07-16T16:06:42;99500.13;;;34.41;38.30
77149;BME280;66122;47.130;16.844;2023-07-16T16:16:44;99516.06;;;34.67;38.17
77149;BME280;66122;47.130;16.844;2023-07-16T16:27:17;99531.75;;;34.67;36.50
77149;BME280;66122;47.130;16.844;2023-07-16T16:37:26;99487.13;;;34.01;38.62
77149;BME280;66122;47.130;16.844;2023-07-16T16:47:29;99506.63;;;33.77;38.55
77149;BME280;66122;47.130;16.844;2023-07-16T16:57:33;99511.66;;;33.91;38.87
77149;BME280;66122;47.130;16.844;2023-07-16T17:07:37;99497.00;;;32.91;41.63
77149;BME280;66122;47.130;16.844;2023-07-16T17:17:39;99508.06;;;32.18;41.88
77149;BME280;66122;47.130;16.844;2023-07-16T17:27:43;99503.44;;;31.94;42.95
77149;BME280;66122;47.130;16.844;2023-07-16T17:37:46;99488.69;;;31.45;43.70
77149;BME280;66122;47.130;16.844;2023-07-16T17:47:49;99497.03;;;31.00;45.04
77149;BME280;66122;47.130;16.844;2023-07-16T17:57:52;99510.94;;;29.97;55.12
77149;BME280;66122;47.130;16.844;2023-07-16T18:07:54;99507.97;;;29.32;59.38
77149;BME280;66122;47.130;16.844;2023-07-16T18:17:57;99529.78;;;28.93;59.84
77149;BME280;66122;47.130;16.844;2023-07-16T18:28:00;99571.59;;;28.52;63.64
77149;BME280;66122;47.130;16.844;2023-07-16T18:38:03;99564.13;;;27.71;69.43
77149;BME280;66122;47.130;16.844;2023-07-16T18:48:06;99581.19;;;27.37;71.10
77149;BME280;66122;47.130;16.844;2023-07-16T18:58:09;99576.25;;;27.26;73.23
77149;BME280;66122;47.130;16.844;2023-07-16T19:08:16;99578.13;;;26.89;75.83
77149;BME280;66122;47.130;16.844;2023-07-16T19:18:21;99571.75;;;26.31;80.12
77149;BME280;66122;47.130;16.844;2023-07-16T19:28:24;99609.66;;;26.10;80.70
77149;BME280;66122;47.130;16.844;2023-07-16T19:38:28;99570.97;;;25.56;83.39
77149;BME280;66122;47.130;16.844;2023-07-16T19:48:34;99578.28;;;25.33;85.35
77149;BME280;66122;47.130;16.844;2023-07-16T19:58:38;99589.75;;;25.20;87.87
77149;BME280;66122;47.130;16.844;2023-07-16T20:08:41;99573.19;;;24.45;88.85
77149;BME280;66122;47.130;16.844;2023-07-16T20:18:44;99602.31;;;24.82;88.32
77149;BME280;66122;47.130;16.844;2023-07-16T20:28:53;99584.34;;;24.81;87.84
77149;BME280;66122;47.130;16.844;2023-07-16T20:38:56;99569.88;;;24.27;90.59
77149;BME280;66122;47.130;16.844;2023-07-16T20:49:06;99606.13;;;24.01;92.78
77149;BME280;66122;47.130;16.844;2023-07-16T20:59:10;99592.78;;;23.92;95.89
77149;BME280;66122;47.130;16.844;2023-07-16T21:09:13;99578.88;;;24.03;94.97
77149;BME280;66122;47.130;16.844;2023-07-16T21:19:15;99588.91;;;23.38;98.35
77149;BME280;66122;47.130;16.844;2023-07-16T21:29:18;99577.75;;;23.49;96.85
77149;BME280;66122;47.130;16.844;2023-07-16T21:39:21;99577.28;;;23.53;96.69
77149;BME280;66122;47.130;16.844;2023-07-16T21:49:24;99604.44;;;23.35;98.74
77149;BME280;66122;47.130;16.844;2023-07-16T21:59:27;99591.38;;;22.98;97.86
77149;BME280;66122;47.130;16.844;2023-07-16T22:09:29;99634.44;;;22.92;99.71
77149;BME280;66122;47.130;16.844;2023-07-16T22:19:32;99653.56;;;22.98;98.98
77149;BME280;66122;47.130;16.844;2023-07-16T22:29:35;99640.88;;;22.99;98.47
77149;BME280;66122;47.130;16.844;2023-07-16T22:39:41;99651.91;;;22.72;100.00
77149;BME280;66122;47.130;16.844;2023-07-16T22:49:44;99634.41;;;22.76;97.60
77149;BME280;66122;47.130;16.844;2023-07-16T22:59:47;99647.47;;;22.88;98.02
77149;BME280;66122;47.130;16.844;2023-07-16T23:09:50;99627.53;;;22.47;100.00
77149;BME280;66122;47.130;16.844;2023-07-16T23:19:52;99614.41;;;22.61;99.77
77149;BME280;66122;47.130;16.844;2023-07-16T23:29:55;99642.22;;;22.53;99.95
77149;BME280;66122;47.130;16.844;2023-07-16T23:39:58;99621.97;;;22.23;100.00
77149;BME280;66122;47.130;16.844;2023-07-16T23:50:02;99592.81;;;22.01;100.00
